Terminal Aerodrome Forecast
Issued by NWS

Home | Current Version | Previous Version | Text Only | Print | Product List | Glossary On
Versions: 1 2 3 4 5 6 7 8 9 10 11 12 13
000
FTUS41 KBTV 281720
TAFMPV
TAF
KMPV 281720Z 2818/2918 35004KT P6SM FEW040 FEW090
     FM290900 00000KT 3SM BR BKN140
     FM291100 VRB03KT P6SM BKN120=

USA.gov is the U.S. government's official web portal to all federal, state and local government web resources and services.